Dades meteomassalio
Diari Summary for Nil La, TWC- Units:  Both    English   Metric
« Previous Day
Next Day »
Diari Semanal Mensual Anual Personalitzat
  Maxima: Minima: Mijana:
Temperatura: TemperatureC °F /  -17.8 °C 11.1 °F /  -11.6 °C 16.6 °F /  -8.6 °C
Rosada: DewpointC °F /  -17.8 °C 6.4 °F /  -14.2 °C 10.2 °F /  -12.1 °C
Humitat: Humidity % 52 % 66 %
Velocitat del vent: WindSpeedKMH mph /  0 km/h - 9.5 mph /  15.3 km/h
Racha vent: WindSpeedGustKMH mph /  0 km/h - -
Vent:- - WNW
Pressio: PressurehPa in /  0 hPa 1020.5 in /  34554.1 hPa -
Pluja: 0.0 in /  0 mm    
Historical Graphs
 
 
Tabular Data for Nil La, TWC-
Time Temperature Dew Point Pressure Wind Wind Speed Wind Gust Humidity Rainfall Rate (Hourly) solar Conditions
TemperatureC °F /  -17.8 °C DewpointC °F /  -17.8 °C PressurehPa in /  0 hPa Calm     Humidity % HourlyPrecipMM in /  0 mm SolarRadiationWatts/m^2 W/m2 Conditions
00:04 20.6 °F /  -6.3 °C 11.7 °F /  -11.3 °C 1020.5 in /  34554.1 hPa NW 22.2 mph /  35.7 km/h 20.1 mph /  32.3 km/h 57 % 0.0 in /  0 mm 0.00 W/m2 CLR
00:09 20.6 °F /  -6.3 °C 12.0 °F /  -11.1 °C 1020.6 in /  34557.5 hPa NNW 22.2 mph /  35.7 km/h 19.5 mph /  31.4 km/h 58 % 0.0 in /  0 mm 0.00 W/m2 CLR
00:14 20.6 °F /  -6.3 °C 12.0 °F /  -11.1 °C 1020.7 in /  34560.9 hPa NW 18.5 mph /  29.8 km/h 18.8 mph /  30.3 km/h 58 % 0.0 in /  0 mm 0.00 W/m2 CLR
00:19 20.6 °F /  -6.3 °C 12.0 °F /  -11.1 °C 1020.7 in /  34560.9 hPa NW 17.7 mph /  28.5 km/h 12.9 mph /  20.8 km/h 58 % 0.0 in /  0 mm 0.00 W/m2 CLR
00:24 20.6 °F /  -6.3 °C 12.3 °F /  -10.9 °C 1020.7 in /  34560.9 hPa NW 16.7 mph /  26.9 km/h 13.0 mph /  20.9 km/h 59 % 0.0 in /  0 mm 0.00 W/m2 CLR
00:29 20.0 °F /  -6.7 °C 11.7 °F /  -11.3 °C 1020.8 in /  34564.3 hPa WNW 16.7 mph /  26.9 km/h 10.6 mph /  17.1 km/h 59 % 0.0 in /  0 mm 0.00 W/m2 CLR
00:34 20.0 °F /  -6.7 °C 11.7 °F /  -11.3 °C 1020.9 in /  34567.7 hPa NW 22.2 mph /  35.7 km/h 16.4 mph /  26.4 km/h 59 % 0.0 in /  0 mm 0.00 W/m2 CLR
00:39 20.0 °F /  -6.7 °C 11.7 °F /  -11.3 °C 1020.8 in /  34564.3 hPa NNW 24.1 mph /  38.8 km/h 18.3 mph /  29.5 km/h 59 % 0.0 in /  0 mm 0.00 W/m2 CLR
00:44 20.0 °F /  -6.7 °C 11.7 °F /  -11.3 °C 1020.8 in /  34564.3 hPa NW 20.4 mph /  32.8 km/h 12.2 mph /  19.6 km/h 59 % 0.0 in /  0 mm 0.00 W/m2 CLR
00:49 20.0 °F /  -6.7 °C 12.0 °F /  -11.1 °C 1020.9 in /  34567.7 hPa NW 18.5 mph /  29.8 km/h 12.2 mph /  19.6 km/h 60 % 0.0 in /  0 mm 0.00 W/m2 CLR
00:54 19.4 °F /  -7 °C 11.5 °F /  -11.4 °C 1020.9 in /  34567.7 hPa WNW 9.3 mph /  15 km/h   60 % 0.0 in /  0 mm 0.00 W/m2 CLR
00:59 19.4 °F /  -7 °C 11.5 °F /  -11.4 °C 1021.0 in /  34571.1 hPa WNW 18.5 mph /  29.8 km/h 14.3 mph /  23 km/h 60 % 0.0 in /  0 mm 0.00 W/m2 CLR
01:04 19.4 °F /  -7 °C 11.5 °F /  -11.4 °C 1021.0 in /  34571.1 hPa NW 16.1 mph /  25.9 km/h 10.6 mph /  17.1 km/h 60 % 0.0 in /  0 mm 0.00 W/m2 CLR
01:09 19.4 °F /  -7 °C 11.5 °F /  -11.4 °C 1021.1 in /  34574.4 hPa NW 12.9 mph /  20.8 km/h 11.4 mph /  18.3 km/h 60 % 0.0 in /  0 mm 0.00 W/m2 CLR
01:14 19.4 °F /  -7 °C 11.7 °F /  -11.3 °C 1021.1 in /  34574.4 hPa NW 16.7 mph /  26.9 km/h 13.0 mph /  20.9 km/h 61 % 0.0 in /  0 mm 0.00 W/m2 CLR
01:19 19.4 °F /  -7 °C 11.7 °F /  -11.3 °C 1021.2 in /  34577.8 hPa WNW 11.1 mph /  17.9 km/h 9.2 mph /  14.8 km/h 61 % 0.0 in /  0 mm 0.00 W/m2 CLR
01:24 18.9 °F /  -7.3 °C 11.2 °F /  -11.6 °C 1021.3 in /  34581.2 hPa West 8.0 mph /  12.9 km/h 6.6 mph /  10.6 km/h 61 % 0.0 in /  0 mm 0.00 W/m2 CLR
01:29 18.9 °F /  -7.3 °C 11.2 °F /  -11.6 °C 1021.3 in /  34581.2 hPa WNW 5.6 mph /  9 km/h 0.5 mph /  0.8 km/h 61 % 0.0 in /  0 mm 0.00 W/m2 CLR
01:34 18.9 °F /  -7.3 °C 11.4 °F /  -11.4 °C 1021.3 in /  34581.2 hPa WNW 11.1 mph /  17.9 km/h 6.3 mph /  10.1 km/h 62 % 0.0 in /  0 mm 0.00 W/m2 CLR
01:39 18.9 °F /  -7.3 °C 11.4 °F /  -11.4 °C 1021.3 in /  34581.2 hPa NW 5.6 mph /  9 km/h   62 % 0.0 in /  0 mm 0.00 W/m2 CLR
01:44 18.3 °F /  -7.6 °C 10.9 °F /  -11.7 °C 1021.2 in /  34577.8 hPa NW 13.0 mph /  20.9 km/h 4.3 mph /  6.9 km/h 62 % 0.0 in /  0 mm 0.00 W/m2 CLR
01:49 18.3 °F /  -7.6 °C 10.9 °F /  -11.7 °C 1021.2 in /  34577.8 hPa WNW 13.0 mph /  20.9 km/h 3.9 mph /  6.3 km/h 62 % 0.0 in /  0 mm 0.00 W/m2 CLR
01:54 18.3 °F /  -7.6 °C 11.2 °F /  -11.6 °C 1021.2 in /  34577.8 hPa Calm     63 % 0.0 in /  0 mm 0.00 W/m2 CLR
01:59 17.8 °F /  -7.9 °C 10.6 °F /  -11.9 °C 1021.2 in /  34577.8 hPa WNW 9.7 mph /  15.6 km/h 6.1 mph /  9.8 km/h 63 % 0.0 in /  0 mm 0.00 W/m2 CLR
02:04 17.8 °F /  -7.9 °C 10.6 °F /  -11.9 °C 1021.2 in /  34577.8 hPa WSW 5.6 mph /  9 km/h 1.0 mph /  1.6 km/h 63 % 0.0 in /  0 mm 0.00 W/m2 CLR
02:09 17.8 °F /  -7.9 °C 10.6 °F /  -11.9 °C 1021.1 in /  34574.4 hPa WSW 1.9 mph /  3.1 km/h   63 % 0.0 in /  0 mm 0.00 W/m2 CLR
02:14 17.2 °F /  -8.2 °C 10.3 °F /  -12.1 °C 1021.1 in /  34574.4 hPa Calm     64 % 0.0 in /  0 mm 0.00 W/m2 CLR
02:19 17.2 °F /  -8.2 °C 10.3 °F /  -12.1 °C 1021.1 in /  34574.4 hPa Calm     64 % 0.0 in /  0 mm 0.00 W/m2 CLR
02:24 16.7 °F /  -8.5 °C 10.1 °F /  -12.2 °C 1021.2 in /  34577.8 hPa West 5.6 mph /  9 km/h 0.3 mph /  0.5 km/h 65 % 0.0 in /  0 mm 0.00 W/m2 CLR
02:29 16.1 °F /  -8.8 °C 9.5 °F /  -12.5 °C 1021.1 in /  34574.4 hPa Calm     65 % 0.0 in /  0 mm 0.00 W/m2 CLR
02:34 16.1 °F /  -8.8 °C 9.8 °F /  -12.3 °C 1021.0 in /  34571.1 hPa Calm     66 % 0.0 in /  0 mm 0.00 W/m2 CLR
02:39 15.6 °F /  -9.1 °C 9.2 °F /  -12.7 °C 1021.1 in /  34574.4 hPa West 7.4 mph /  11.9 km/h 6.1 mph /  9.8 km/h 66 % 0.0 in /  0 mm 0.00 W/m2 CLR
02:44 15.0 °F /  -9.4 °C 8.7 °F /  -12.9 °C 1021.1 in /  34574.4 hPa West 5.6 mph /  9 km/h 0.2 mph /  0.3 km/h 66 % 0.0 in /  0 mm 0.00 W/m2 CLR
02:49 15.0 °F /  -9.4 °C 8.7 °F /  -12.9 °C 1021.1 in /  34574.4 hPa Calm     66 % 0.0 in /  0 mm 0.00 W/m2 CLR
02:54 15.0 °F /  -9.4 °C 8.9 °F /  -12.8 °C 1021.1 in /  34574.4 hPa Calm     67 % 0.0 in /  0 mm 0.00 W/m2 CLR
02:59 14.4 °F /  -9.8 °C 8.4 °F /  -13.1 °C 1021.2 in /  34577.8 hPa WNW 5.6 mph /  9 km/h 2.1 mph /  3.4 km/h 67 % 0.0 in /  0 mm 0.00 W/m2 CLR
03:04 14.4 °F /  -9.8 °C 8.4 °F /  -13.1 °C 1021.2 in /  34577.8 hPa West 8.0 mph /  12.9 km/h 6.1 mph /  9.8 km/h 67 % 0.0 in /  0 mm 0.00 W/m2 CLR
03:09 13.9 °F /  -10.1 °C 7.8 °F /  -13.4 °C 1021.2 in /  34577.8 hPa West 7.4 mph /  11.9 km/h 5.5 mph /  8.9 km/h 67 % 0.0 in /  0 mm 0.00 W/m2 CLR
03:14 13.9 °F /  -10.1 °C 7.8 °F /  -13.4 °C 1021.3 in /  34581.2 hPa WSW 3.7 mph /  6 km/h 0.6 mph /  1 km/h 67 % 0.0 in /  0 mm 0.00 W/m2 CLR
03:19 13.9 °F /  -10.1 °C 7.8 °F /  -13.4 °C 1021.3 in /  34581.2 hPa WSW 4.8 mph /  7.7 km/h 1.3 mph /  2.1 km/h 67 % 0.0 in /  0 mm 0.00 W/m2 CLR
03:22 13.9 °F /  -10.1 °C 8.1 °F /  -13.3 °C 1021.3 in /  34581.2 hPa West 6.4 mph /  10.3 km/h 5.0 mph /  8 km/h 68 % 0.0 in /  0 mm 0.00 W/m2 CLR
03:29 13.3 °F /  -10.4 °C 7.8 °F /  -13.4 °C 1021.2 in /  34577.8 hPa West 7.4 mph /  11.9 km/h 2.6 mph /  4.2 km/h 69 % 0.0 in /  0 mm 0.00 W/m2 CLR
03:34 13.3 °F /  -10.4 °C 7.8 °F /  -13.4 °C 1021.1 in /  34574.4 hPa WNW 7.4 mph /  11.9 km/h 4.7 mph /  7.6 km/h 69 % 0.0 in /  0 mm 0.00 W/m2 CLR
03:39 13.3 °F /  -10.4 °C 7.8 °F /  -13.4 °C 1021.1 in /  34574.4 hPa West 5.6 mph /  9 km/h 3.9 mph /  6.3 km/h 69 % 0.0 in /  0 mm 0.00 W/m2 CLR
03:44 13.3 °F /  -10.4 °C 7.6 °F /  -13.6 °C 1021.1 in /  34574.4 hPa Calm     68 % 0.0 in /  0 mm 0.00 W/m2 CLR
03:49 13.3 °F /  -10.4 °C 7.8 °F /  -13.4 °C 1021.1 in /  34574.4 hPa West 9.3 mph /  15 km/h 7.4 mph /  11.9 km/h 69 % 0.0 in /  0 mm 0.00 W/m2 CLR
03:54 13.3 °F /  -10.4 °C 8.0 °F /  -13.3 °C 1021.0 in /  34571.1 hPa West 9.3 mph /  15 km/h 8.7 mph /  14 km/h 70 % 0.0 in /  0 mm 0.00 W/m2 CLR
03:59 12.8 °F /  -10.7 °C 7.4 °F /  -13.7 °C 1021.0 in /  34571.1 hPa West 14.8 mph /  23.8 km/h 7.9 mph /  12.7 km/h 70 % 0.0 in /  0 mm 0.00 W/m2 CLR
04:04 12.8 °F /  -10.7 °C 7.4 °F /  -13.7 °C 1021.1 in /  34574.4 hPa West 7.4 mph /  11.9 km/h 5.5 mph /  8.9 km/h 70 % 0.0 in /  0 mm 0.00 W/m2 CLR
04:09 12.8 °F /  -10.7 °C 7.4 °F /  -13.7 °C 1021.0 in /  34571.1 hPa West 9.7 mph /  15.6 km/h 6.0 mph /  9.7 km/h 70 % 0.0 in /  0 mm 0.00 W/m2 CLR
04:14 12.8 °F /  -10.7 °C 7.4 °F /  -13.7 °C 1021.0 in /  34571.1 hPa WNW 9.7 mph /  15.6 km/h 6.9 mph /  11.1 km/h 70 % 0.0 in /  0 mm 0.00 W/m2 CLR
04:19 12.8 °F /  -10.7 °C 7.4 °F /  -13.7 °C 1021.0 in /  34571.1 hPa West 11.1 mph /  17.9 km/h 8.4 mph /  13.5 km/h 70 % 0.0 in /  0 mm 0.00 W/m2 CLR
04:24 12.8 °F /  -10.7 °C 7.4 °F /  -13.7 °C 1021.1 in /  34574.4 hPa West 9.3 mph /  15 km/h 5.3 mph /  8.5 km/h 70 % 0.0 in /  0 mm 0.00 W/m2 CLR
04:29 12.8 °F /  -10.7 °C 7.4 °F /  -13.7 °C 1021.0 in /  34571.1 hPa West 9.3 mph /  15 km/h 6.1 mph /  9.8 km/h 70 % 0.0 in /  0 mm 0.00 W/m2 CLR
04:34 12.8 °F /  -10.7 °C 7.4 °F /  -13.7 °C 1021.0 in /  34571.1 hPa West 7.4 mph /  11.9 km/h 6.8 mph /  10.9 km/h 70 % 0.0 in /  0 mm 0.00 W/m2 CLR
04:39 12.8 °F /  -10.7 °C 7.7 °F /  -13.5 °C 1021.0 in /  34571.1 hPa WNW 9.3 mph /  15 km/h 6.8 mph /  10.9 km/h 71 % 0.0 in /  0 mm 0.00 W/m2 CLR
04:44 12.8 °F /  -10.7 °C 7.7 °F /  -13.5 °C 1021.1 in /  34574.4 hPa WNW 7.4 mph /  11.9 km/h 6.3 mph /  10.1 km/h 71 % 0.0 in /  0 mm 0.00 W/m2 CLR
04:49 12.8 °F /  -10.7 °C 7.7 °F /  -13.5 °C 1021.0 in /  34571.1 hPa WNW 8.0 mph /  12.9 km/h 6.8 mph /  10.9 km/h 71 % 0.0 in /  0 mm 0.00 W/m2 CLR
04:54 12.8 °F /  -10.7 °C 7.7 °F /  -13.5 °C 1021.1 in /  34574.4 hPa Calm     71 % 0.0 in /  0 mm 0.00 W/m2 CLR
04:59 12.8 °F /  -10.7 °C 7.7 °F /  -13.5 °C 1021.0 in /  34571.1 hPa West 5.6 mph /  9 km/h 4.8 mph /  7.7 km/h 71 % 0.0 in /  0 mm 0.00 W/m2 CLR
05:04 12.8 °F /  -10.7 °C 7.7 °F /  -13.5 °C 1020.9 in /  34567.7 hPa WNW 9.7 mph /  15.6 km/h 7.2 mph /  11.6 km/h 71 % 0.0 in /  0 mm 0.00 W/m2 CLR
05:09 12.8 °F /  -10.7 °C 7.7 °F /  -13.5 °C 1020.9 in /  34567.7 hPa WNW 14.8 mph /  23.8 km/h 8.8 mph /  14.2 km/h 71 % 0.0 in /  0 mm 0.00 W/m2 CLR
05:14 12.2 °F /  -11 °C 7.1 °F /  -13.8 °C 1020.9 in /  34567.7 hPa West 11.1 mph /  17.9 km/h 6.6 mph /  10.6 km/h 71 % 0.0 in /  0 mm 0.00 W/m2 CLR
05:19 12.2 °F /  -11 °C 7.1 °F /  -13.8 °C 1020.9 in /  34567.7 hPa WNW 7.4 mph /  11.9 km/h 6.4 mph /  10.3 km/h 71 % 0.0 in /  0 mm 0.00 W/m2 CLR
05:24 12.2 °F /  -11 °C 7.1 °F /  -13.8 °C 1020.9 in /  34567.7 hPa West 9.3 mph /  15 km/h 7.1 mph /  11.4 km/h 71 % 0.0 in /  0 mm 0.00 W/m2 CLR
05:29 12.2 °F /  -11 °C 7.1 °F /  -13.8 °C 1021.0 in /  34571.1 hPa West 5.6 mph /  9 km/h 1.9 mph /  3.1 km/h 71 % 0.0 in /  0 mm 0.00 W/m2 CLR
05:34 12.2 °F /  -11 °C 7.3 °F /  -13.7 °C 1021.0 in /  34571.1 hPa West 5.6 mph /  9 km/h 2.4 mph /  3.9 km/h 72 % 0.0 in /  0 mm 0.00 W/m2 CLR
05:39 11.7 °F /  -11.3 °C 6.8 °F /  -14 °C 1021.0 in /  34571.1 hPa West 9.7 mph /  15.6 km/h 7.1 mph /  11.4 km/h 72 % 0.0 in /  0 mm 0.00 W/m2 CLR
05:44 11.7 °F /  -11.3 °C 7.0 °F /  -13.9 °C 1021.0 in /  34571.1 hPa West 9.3 mph /  15 km/h 6.6 mph /  10.6 km/h 73 % 0.0 in /  0 mm 0.00 W/m2 CLR
05:49 11.7 °F /  -11.3 °C 6.8 °F /  -14 °C 1021.0 in /  34571.1 hPa WNW 9.3 mph /  15 km/h 1.9 mph /  3.1 km/h 72 % 0.0 in /  0 mm 0.00 W/m2 CLR
05:54 11.7 °F /  -11.3 °C 7.0 °F /  -13.9 °C 1021.0 in /  34571.1 hPa West 7.4 mph /  11.9 km/h 3.1 mph /  5 km/h 73 % 0.0 in /  0 mm 0.00 W/m2 CLR
05:59 11.7 °F /  -11.3 °C 6.8 °F /  -14 °C 1021.0 in /  34571.1 hPa West 3.7 mph /  6 km/h   72 % 0.0 in /  0 mm 0.00 W/m2 CLR
06:04 11.7 °F /  -11.3 °C 7.0 °F /  -13.9 °C 1021.0 in /  34571.1 hPa WNW 9.3 mph /  15 km/h 6.4 mph /  10.3 km/h 73 % 0.0 in /  0 mm 0.00 W/m2 CLR
06:09 11.7 °F /  -11.3 °C 7.0 °F /  -13.9 °C 1021.0 in /  34571.1 hPa West 9.3 mph /  15 km/h 5.0 mph /  8 km/h 73 % 0.0 in /  0 mm 0.00 W/m2 CLR
06:14 11.7 °F /  -11.3 °C 7.0 °F /  -13.9 °C 1021.0 in /  34571.1 hPa Calm   2.7 mph /  4.3 km/h 73 % 0.0 in /  0 mm 0.00 W/m2 CLR
06:19 11.7 °F /  -11.3 °C 7.0 °F /  -13.9 °C 1021.0 in /  34571.1 hPa WNW 5.6 mph /  9 km/h 3.2 mph /  5.1 km/h 73 % 0.0 in /  0 mm 0.00 W/m2 CLR
06:24 11.7 °F /  -11.3 °C 7.2 °F /  -13.8 °C 1021.2 in /  34577.8 hPa WNW 7.4 mph /  11.9 km/h 4.0 mph /  6.4 km/h 74 % 0.0 in /  0 mm 0.00 W/m2 CLR
06:29 11.1 °F /  -11.6 °C 6.7 °F /  -14.1 °C 1021.2 in /  34577.8 hPa WNW 7.4 mph /  11.9 km/h 5.1 mph /  8.2 km/h 74 % 0.0 in /  0 mm 0.00 W/m2 CLR
06:34 11.1 °F /  -11.6 °C 6.7 °F /  -14.1 °C 1021.3 in /  34581.2 hPa West 7.4 mph /  11.9 km/h 2.6 mph /  4.2 km/h 74 % 0.0 in /  0 mm 0.00 W/m2 CLR
06:39 11.1 °F /  -11.6 °C 6.4 °F /  -14.2 °C 1021.1 in /  34574.4 hPa West 6.4 mph /  10.3 km/h 2.4 mph /  3.9 km/h 73 % 0.0 in /  0 mm 0.00 W/m2 CLR
06:44 11.1 °F /  -11.6 °C 6.8 °F /  -14 °C 1021.1 in /  34574.4 hPa WNW 7.4 mph /  11.9 km/h 6.3 mph /  10.1 km/h 75 % 0.0 in /  0 mm 0.00 W/m2 CLR
06:49 11.1 °F /  -11.6 °C 6.7 °F /  -14.1 °C 1021.1 in /  34574.4 hPa WNW 6.4 mph /  10.3 km/h 6.0 mph /  9.7 km/h 74 % 0.0 in /  0 mm 0.00 W/m2 CLR
06:54 11.1 °F /  -11.6 °C 6.7 °F /  -14.1 °C 1021.1 in /  34574.4 hPa WNW 9.7 mph /  15.6 km/h 7.7 mph /  12.4 km/h 74 % 0.0 in /  0 mm 0.00 W/m2 CLR
06:59 11.1 °F /  -11.6 °C 6.7 °F /  -14.1 °C 1021.2 in /  34577.8 hPa WNW 8.0 mph /  12.9 km/h 6.4 mph /  10.3 km/h 74 % 0.0 in /  0 mm 0.00 W/m2 CLR
07:04 11.1 °F /  -11.6 °C 6.7 °F /  -14.1 °C 1021.2 in /  34577.8 hPa WNW 7.4 mph /  11.9 km/h 3.2 mph /  5.1 km/h 74 % 0.0 in /  0 mm 0.00 W/m2 OVC
07:09 11.1 °F /  -11.6 °C 6.4 °F /  -14.2 °C 1021.2 in /  34577.8 hPa Calm     73 % 0.0 in /  0 mm 5.00 W/m2 OVC
07:14 11.1 °F /  -11.6 °C 6.7 °F /  -14.1 °C 1021.3 in /  34581.2 hPa West 8.0 mph /  12.9 km/h 7.7 mph /  12.4 km/h 74 % 0.0 in /  0 mm 7.00 W/m2 BKN
07:19 11.1 °F /  -11.6 °C 7.1 °F /  -13.8 °C 1021.3 in /  34581.2 hPa West 7.4 mph /  11.9 km/h 3.2 mph /  5.1 km/h 76 % 0.0 in /  0 mm 9.00 W/m2 BKN
07:24 11.1 °F /  -11.6 °C 7.1 °F /  -13.8 °C 1021.3 in /  34581.2 hPa WNW 7.4 mph /  11.9 km/h 5.3 mph /  8.5 km/h 76 % 0.0 in /  0 mm 12.00 W/m2 BKN
07:29 11.1 °F /  -11.6 °C 6.8 °F /  -14 °C 1021.4 in /  34584.6 hPa West 11.1 mph /  17.9 km/h 7.1 mph /  11.4 km/h 75 % 0.0 in /  0 mm 14.00 W/m2 BKN
07:34 11.1 °F /  -11.6 °C 6.7 °F /  -14.1 °C 1021.5 in /  34588 hPa Calm     74 % 0.0 in /  0 mm 16.00 W/m2 BKN
07:39 11.7 °F /  -11.3 °C 7.2 °F /  -13.8 °C 1021.5 in /  34588 hPa Calm     74 % 0.0 in /  0 mm 21.00 W/m2 BKN
07:44 11.7 °F /  -11.3 °C 7.4 °F /  -13.7 °C 1021.5 in /  34588 hPa Calm     75 % 0.0 in /  0 mm 32.00 W/m2 BKN
07:49 11.7 °F /  -11.3 °C 7.4 °F /  -13.7 °C 1021.5 in /  34588 hPa West 5.6 mph /  9 km/h   75 % 0.0 in /  0 mm 40.00 W/m2 BKN
07:54 11.7 °F /  -11.3 °C 7.4 °F /  -13.7 °C 1021.5 in /  34588 hPa Calm     75 % 0.0 in /  0 mm 54.00 W/m2 SCT
07:59 12.2 °F /  -11 °C 7.9 °F /  -13.4 °C 1021.5 in /  34588 hPa West 1.9 mph /  3.1 km/h 0.3 mph /  0.5 km/h 75 % 0.0 in /  0 mm 58.00 W/m2 SCT
08:04 12.8 °F /  -10.7 °C 8.3 °F /  -13.2 °C 1021.5 in /  34588 hPa West 5.6 mph /  9 km/h 0.2 mph /  0.3 km/h 74 % 0.0 in /  0 mm 83.00 W/m2 FEW
08:09 12.8 °F /  -10.7 °C 8.1 °F /  -13.3 °C 1021.6 in /  34591.4 hPa Calm     73 % 0.0 in /  0 mm 98.00 W/m2 CLR
08:14 12.8 °F /  -10.7 °C 7.8 °F /  -13.4 °C 1021.5 in /  34588 hPa WNW 5.6 mph /  9 km/h   72 % 0.0 in /  0 mm 114.00 W/m2 CLR
08:19 13.9 °F /  -10.1 °C 8.7 °F /  -12.9 °C 1021.5 in /  34588 hPa WNW 9.3 mph /  15 km/h 3.2 mph /  5.1 km/h 71 % 0.0 in /  0 mm 132.00 W/m2 CLR
08:24 14.4 °F /  -9.8 °C 9.2 °F /  -12.7 °C 1021.5 in /  34588 hPa West 4.8 mph /  7.7 km/h 1.1 mph /  1.8 km/h 71 % 0.0 in /  0 mm 149.00 W/m2 CLR
08:29 15.0 °F /  -9.4 °C 9.6 °F /  -12.4 °C 1021.6 in /  34591.4 hPa West 7.4 mph /  11.9 km/h 3.1 mph /  5 km/h 70 % 0.0 in /  0 mm 171.00 W/m2 CLR
08:34 16.1 °F /  -8.8 °C 10.4 °F /  -12 °C 1021.6 in /  34591.4 hPa West 13.0 mph /  20.9 km/h 3.4 mph /  5.5 km/h 69 % 0.0 in /  0 mm 190.00 W/m2 CLR
08:39 17.2 °F /  -8.2 °C 11.5 °F /  -11.4 °C 1021.5 in /  34588 hPa West 16.7 mph /  26.9 km/h 15.0 mph /  24.1 km/h 69 % 0.0 in /  0 mm 207.00 W/m2 CLR
08:44 17.8 °F /  -7.9 °C 11.8 °F /  -11.2 °C 1021.6 in /  34591.4 hPa West 14.8 mph /  23.8 km/h 10.3 mph /  16.6 km/h 68 % 0.0 in /  0 mm 225.00 W/m2 CLR
08:49 18.3 °F /  -7.6 °C 12.3 °F /  -10.9 °C 1021.6 in /  34591.4 hPa West 14.8 mph /  23.8 km/h 5.5 mph /  8.9 km/h 68 % 0.0 in /  0 mm 241.00 W/m2 CLR
08:54 18.3 °F /  -7.6 °C 12.3 °F /  -10.9 °C 1021.5 in /  34588 hPa WNW 18.5 mph /  29.8 km/h 8.7 mph /  14 km/h 68 % 0.0 in /  0 mm 260.00 W/m2 CLR
08:59 18.9 °F /  -7.3 °C 12.8 °F /  -10.7 °C 1021.6 in /  34591.4 hPa WNW 13.0 mph /  20.9 km/h 8.8 mph /  14.2 km/h 68 % 0.0 in /  0 mm 276.00 W/m2 CLR
09:04 19.4 °F /  -7 °C 13.4 °F /  -10.3 °C 1021.5 in /  34588 hPa WNW 12.9 mph /  20.8 km/h 10.0 mph /  16.1 km/h 68 % 0.0 in /  0 mm 290.00 W/m2 CLR
09:09 19.4 °F /  -7 °C 13.2 °F /  -10.4 °C 1021.4 in /  34584.6 hPa NW 18.5 mph /  29.8 km/h 19.1 mph /  30.7 km/h 67 % 0.0 in /  0 mm 306.00 W/m2 CLR
09:14 19.4 °F /  -7 °C 13.2 °F /  -10.4 °C 1021.4 in /  34584.6 hPa NW 18.5 mph /  29.8 km/h 14.6 mph /  23.5 km/h 67 % 0.0 in /  0 mm 323.00 W/m2 CLR
09:19 19.4 °F /  -7 °C 13.2 °F /  -10.4 °C 1021.4 in /  34584.6 hPa WNW 11.3 mph /  18.2 km/h 5.1 mph /  8.2 km/h 67 % 0.0 in /  0 mm 338.00 W/m2 CLR
09:24 19.4 °F /  -7 °C 12.9 °F /  -10.6 °C 1021.4 in /  34584.6 hPa NNW 16.1 mph /  25.9 km/h 12.7 mph /  20.4 km/h 66 % 0.0 in /  0 mm 134.00 W/m2 CLR
09:29 19.4 °F /  -7 °C 13.2 °F /  -10.4 °C 1021.3 in /  34581.2 hPa West 18.5 mph /  29.8 km/h 3.5 mph /  5.6 km/h 67 % 0.0 in /  0 mm 176.00 W/m2 CLR
09:34 20.0 °F /  -6.7 °C 13.4 °F /  -10.3 °C 1021.4 in /  34584.6 hPa NNW 18.5 mph /  29.8 km/h 12.1 mph /  19.5 km/h 66 % 0.0 in /  0 mm 385.00 W/m2 CLR
09:39 20.0 °F /  -6.7 °C 13.2 °F /  -10.4 °C 1021.4 in /  34584.6 hPa West 16.7 mph /  26.9 km/h 10.0 mph /  16.1 km/h 65 % 0.0 in /  0 mm 404.00 W/m2 CLR
09:44 20.0 °F /  -6.7 °C 13.4 °F /  -10.3 °C 1021.4 in /  34584.6 hPa NNW 24.1 mph /  38.8 km/h 15.1 mph /  24.3 km/h 66 % 0.0 in /  0 mm 417.00 W/m2 CLR
09:49 20.6 °F /  -6.3 °C 13.7 °F /  -10.2 °C 1021.4 in /  34584.6 hPa NW 16.7 mph /  26.9 km/h 12.1 mph /  19.5 km/h 65 % 0.0 in /  0 mm 434.00 W/m2 CLR
09:54 20.0 °F /  -6.7 °C 13.2 °F /  -10.4 °C 1021.3 in /  34581.2 hPa NNW 6.4 mph /  10.3 km/h 4.8 mph /  7.7 km/h 65 % 0.0 in /  0 mm 448.00 W/m2 CLR
09:59 20.6 °F /  -6.3 °C 13.5 °F /  -10.3 °C 1021.4 in /  34584.6 hPa NW 14.8 mph /  23.8 km/h 8.8 mph /  14.2 km/h 64 % 0.0 in /  0 mm 466.00 W/m2 CLR
10:04 20.6 °F /  -6.3 °C 13.7 °F /  -10.2 °C 1021.3 in /  34581.2 hPa NNW 9.3 mph /  15 km/h 9.5 mph /  15.3 km/h 65 % 0.0 in /  0 mm 483.00 W/m2 CLR
10:09 20.6 °F /  -6.3 °C 13.5 °F /  -10.3 °C 1021.3 in /  34581.2 hPa WNW 13.0 mph /  20.9 km/h 11.6 mph /  18.7 km/h 64 % 0.0 in /  0 mm 496.00 W/m2 CLR
10:14 21.1 °F /  -6.1 °C 13.8 °F /  -10.1 °C 1021.3 in /  34581.2 hPa WNW 18.5 mph /  29.8 km/h 12.7 mph /  20.4 km/h 63 % 0.0 in /  0 mm 512.00 W/m2 CLR
10:19 21.1 °F /  -6.1 °C 14.1 °F /  -9.9 °C 1021.4 in /  34584.6 hPa WNW 13.0 mph /  20.9 km/h 7.7 mph /  12.4 km/h 64 % 0.0 in /  0 mm 527.00 W/m2 CLR
10:24 21.1 °F /  -6.1 °C 14.1 °F /  -9.9 °C 1021.3 in /  34581.2 hPa WNW 11.1 mph /  17.9 km/h 5.0 mph /  8 km/h 64 % 0.0 in /  0 mm 541.00 W/m2 CLR
10:29 21.1 °F /  -6.1 °C 13.6 °F /  -10.2 °C 1021.2 in /  34577.8 hPa NW 17.7 mph /  28.5 km/h 12.6 mph /  20.3 km/h 62 % 0.0 in /  0 mm 554.00 W/m2 CLR
10:34 21.1 °F /  -6.1 °C 13.6 °F /  -10.2 °C 1021.3 in /  34581.2 hPa WNW 7.4 mph /  11.9 km/h 3.2 mph /  5.1 km/h 62 % 0.0 in /  0 mm 570.00 W/m2 CLR
10:39 21.1 °F /  -6.1 °C 13.3 °F /  -10.4 °C 1021.2 in /  34577.8 hPa WNW 5.6 mph /  9 km/h   61 % 0.0 in /  0 mm 584.00 W/m2 CLR
10:44 21.1 °F /  -6.1 °C 13.1 °F /  -10.5 °C 1021.1 in /  34574.4 hPa NNW 14.8 mph /  23.8 km/h 7.1 mph /  11.4 km/h 60 % 0.0 in /  0 mm 598.00 W/m2 CLR
10:49 21.7 °F /  -5.7 °C 13.6 °F /  -10.2 °C 1021.1 in /  34574.4 hPa NW 14.8 mph /  23.8 km/h 8.0 mph /  12.9 km/h 60 % 0.0 in /  0 mm 613.00 W/m2 CLR
10:54 22.2 °F /  -5.4 °C 14.1 °F /  -9.9 °C 1021.1 in /  34574.4 hPa West 11.1 mph /  17.9 km/h 8.7 mph /  14 km/h 60 % 0.0 in /  0 mm 624.00 W/m2 CLR
10:59 22.2 °F /  -5.4 °C 13.8 °F /  -10.1 °C 1021.1 in /  34574.4 hPa NW 16.7 mph /  26.9 km/h 2.4 mph /  3.9 km/h 59 % 0.0 in /  0 mm 636.00 W/m2 CLR
11:04 22.8 °F /  -5.1 °C 14.1 °F /  -9.9 °C 1021.0 in /  34571.1 hPa NW 11.1 mph /  17.9 km/h 2.1 mph /  3.4 km/h 58 % 0.0 in /  0 mm 649.00 W/m2 CLR
11:09 22.2 °F /  -5.4 °C 13.8 °F /  -10.1 °C 1021.0 in /  34571.1 hPa NW 7.4 mph /  11.9 km/h 6.9 mph /  11.1 km/h 59 % 0.0 in /  0 mm 663.00 W/m2 CLR
11:14 23.3 °F /  -4.8 °C 14.6 °F /  -9.7 °C 1021.0 in /  34571.1 hPa Calm     58 % 0.0 in /  0 mm 675.00 W/m2 CLR
11:19 23.3 °F /  -4.8 °C 14.3 °F /  -9.8 °C 1020.9 in /  34567.7 hPa WNW 11.1 mph /  17.9 km/h 10.0 mph /  16.1 km/h 57 % 0.0 in /  0 mm 686.00 W/m2 CLR
11:24 23.3 °F /  -4.8 °C 14.3 °F /  -9.8 °C 1020.9 in /  34567.7 hPa NE 5.6 mph /  9 km/h 0.3 mph /  0.5 km/h 57 % 0.0 in /  0 mm 696.00 W/m2 CLR
11:29 23.3 °F /  -4.8 °C 14.3 °F /  -9.8 °C 1020.9 in /  34567.7 hPa WNW 9.7 mph /  15.6 km/h 6.1 mph /  9.8 km/h 57 % 0.0 in /  0 mm 707.00 W/m2 CLR
11:34 23.3 °F /  -4.8 °C 14.3 °F /  -9.8 °C 1020.9 in /  34567.7 hPa WNW 7.4 mph /  11.9 km/h 6.1 mph /  9.8 km/h 57 % 0.0 in /  0 mm 717.00 W/m2 CLR
11:39 23.9 °F /  -4.5 °C 14.6 °F /  -9.7 °C 1020.8 in /  34564.3 hPa NNW 18.5 mph /  29.8 km/h 12.9 mph /  20.8 km/h 56 % 0.0 in /  0 mm 728.00 W/m2 CLR
11:44 23.9 °F /  -4.5 °C 14.0 °F /  -10 °C 1020.8 in /  34564.3 hPa NNW 18.5 mph /  29.8 km/h 8.4 mph /  13.5 km/h 54 % 0.0 in /  0 mm 738.00 W/m2 CLR
11:49 23.9 °F /  -4.5 °C 14.0 °F /  -10 °C 1020.9 in /  34567.7 hPa North 11.1 mph /  17.9 km/h 0.3 mph /  0.5 km/h 54 % 0.0 in /  0 mm 747.00 W/m2 CLR
11:54 23.9 °F /  -4.5 °C 14.0 °F /  -10 °C 1020.8 in /  34564.3 hPa NNW 11.3 mph /  18.2 km/h 4.0 mph /  6.4 km/h 54 % 0.0 in /  0 mm 758.00 W/m2 CLR
11:59 24.4 °F /  -4.2 °C 14.6 °F /  -9.7 °C 1020.7 in /  34560.9 hPa North 14.8 mph /  23.8 km/h 7.2 mph /  11.6 km/h 54 % 0.0 in /  0 mm 765.00 W/m2 CLR
12:04 24.4 °F /  -4.2 °C 14.6 °F /  -9.7 °C 1020.7 in /  34560.9 hPa SSW 5.6 mph /  9 km/h   54 % 0.0 in /  0 mm 775.00 W/m2 CLR
12:09 25.0 °F /  -3.9 °C 14.8 °F /  -9.6 °C 1020.7 in /  34560.9 hPa WNW 7.4 mph /  11.9 km/h 3.2 mph /  5.1 km/h 53 % 0.0 in /  0 mm 784.00 W/m2 CLR
12:14 24.4 °F /  -4.2 °C 14.2 °F /  -9.9 °C 1020.7 in /  34560.9 hPa North 16.7 mph /  26.9 km/h 12.1 mph /  19.5 km/h 53 % 0.0 in /  0 mm 796.00 W/m2 CLR
12:19 25.0 °F /  -3.9 °C 14.8 °F /  -9.6 °C 1020.6 in /  34557.5 hPa NNE 9.3 mph /  15 km/h 7.1 mph /  11.4 km/h 53 % 0.0 in /  0 mm 807.00 W/m2 CLR
12:24 24.4 °F /  -4.2 °C 14.2 °F /  -9.9 °C 1020.6 in /  34557.5 hPa Calm     53 % 0.0 in /  0 mm 812.00 W/m2 CLR
12:29 24.4 °F /  -4.2 °C 13.9 °F /  -10.1 °C 1020.5 in /  34554.1 hPa Calm   0.3 mph /  0.5 km/h 52 % 0.0 in /  0 mm 823.00 W/m2 CLR
Lo Temps de Massalio
Compliments of Weather Underground - 768 kb